Time;durP1;ratioP1;P1;durP2;ratioP2;P2;SDS_P1;SDS_P2;PMS_P1;PMS_P2;Temp;Humidity;BMP_temperature;BMP_pressure;BME280_temperature;BME280_humidity;BME280_pressure;Samples;Min_cycle;Max_cycle;Signal;HPM_P1;HPM_P2
2022/09/16 00:02:20;;;;;;;2.58;0.30;;;11.60;99.90;;;;;;5043118;28;20118;-80
2022/09/16 00:04:45;;;;;;;2.03;0.20;;;11.60;99.90;;;;;;5043825;28;20037;-81
2022/09/16 00:07:11;;;;;;;1.83;0.28;;;11.70;99.90;;;;;;5042373;28;20062;-78
2022/09/16 00:09:37;;;;;;;4.57;0.40;;;11.70;99.90;;;;;;5040201;28;20036;-80
2022/09/16 00:12:04;;;;;;;3.35;0.30;;;11.80;99.90;;;;;;5042086;28;20029;-78
2022/09/16 00:14:30;;;;;;;4.10;0.30;;;11.80;99.90;;;;;;5043815;28;20374;-80
2022/09/16 00:16:56;;;;;;;3.60;0.30;;;11.90;99.90;;;;;;5041669;28;20035;-81
2022/09/16 00:19:22;;;;;;;3.17;0.57;;;11.90;99.90;;;;;;5042866;28;20025;-81
2022/09/16 00:21:48;;;;;;;1.95;0.30;;;12.00;99.90;;;;;;5054941;28;20473;-81
2022/09/16 00:24:15;;;;;;;3.65;0.30;;;12.00;99.90;;;;;;5058836;28;20088;-79
2022/09/16 00:26:42;;;;;;;2.17;0.20;;;12.00;99.90;;;;;;5040921;28;20028;-82
2022/09/16 00:29:08;;;;;;;3.88;0.30;;;12.00;99.90;;;;;;5043231;28;20079;-79
2022/09/16 00:31:34;;;;;;;3.42;0.50;;;12.10;99.90;;;;;;5041205;28;20022;-79
2022/09/16 00:33:59;;;;;;;2.75;0.30;;;12.10;99.90;;;;;;5058991;28;20397;-78
2022/09/16 00:36:25;;;;;;;5.05;0.35;;;12.10;99.90;;;;;;5042117;28;20048;-79
2022/09/16 00:38:53;;;;;;;4.75;0.43;;;12.20;99.90;;;;;;5027608;28;20052;-79
2022/09/16 00:41:29;;;;;;;1.33;0.30;;;12.20;99.90;;;;;;5044160;28;20051;-77
2022/09/16 00:44:01;;;;;;;8.43;0.55;;;12.40;99.90;;;;;;5042185;28;20069;-80
2022/09/16 00:46:42;;;;;;;3.88;0.40;;;12.40;99.90;;;;;;5042082;28;20527;-82
2022/09/16 00:49:29;;;;;;;4.85;0.40;;;12.40;99.90;;;;;;5042167;28;20078;-78
2022/09/16 00:52:04;;;;;;;2.03;0.20;;;12.40;99.90;;;;;;5041625;28;20044;-81
2022/09/16 00:54:32;;;;;;;3.63;0.20;;;12.40;99.90;;;;;;5040409;28;20032;-80
2022/09/16 00:56:59;;;;;;;3.03;0.20;;;12.40;99.90;;;;;;5045235;28;20044;-80
2022/09/16 00:59:31;;;;;;;2.30;0.20;;;12.40;99.90;;;;;;5044174;28;20389;-78
2022/09/16 01:02:01;;;;;;;2.88;0.13;;;12.40;99.90;;;;;;5037595;28;20481;-81
2022/09/16 01:04:31;;;;;;;4.30;0.30;;;12.30;99.90;;;;;;5041665;28;20033;-81
2022/09/16 01:06:57;;;;;;;3.45;0.20;;;12.30;99.90;;;;;;5059367;28;20083;-82
2022/09/16 01:09:24;;;;;;;1.98;0.20;;;12.30;99.90;;;;;;5044086;28;20021;-81
2022/09/16 01:11:50;;;;;;;1.73;0.20;;;12.30;99.90;;;;;;5035956;28;20449;-80
2022/09/16 01:17:23;;;;;;;1.70;0.20;;;12.30;99.90;;;;;;5043313;28;20075;-79
2022/09/16 01:20:13;;;;;;;4.80;0.22;;;12.30;99.90;;;;;;5038570;28;20041;-80
2022/09/16 01:22:59;;;;;;;4.15;0.20;;;12.30;99.90;;;;;;5040925;28;20025;-78
2022/09/16 01:25:28;;;;;;;2.90;0.20;;;12.20;99.90;;;;;;5041470;28;20098;-79
2022/09/16 01:28:15;;;;;;;3.92;0.20;;;12.20;99.90;;;;;;5040433;28;20025;-81
2022/09/16 01:31:33;;;;;;;2.50;0.13;;;12.20;99.90;;;;;;5044339;28;20036;-79
2022/09/16 01:34:16;;;;;;;2.80;0.30;;;12.10;99.90;;;;;;5032906;28;20036;-80
2022/09/16 01:37:14;;;;;;;2.97;0.20;;;12.10;99.90;;;;;;5043430;28;20025;-83
2022/09/16 01:39:47;;;;;;;2.45;0.20;;;12.20;99.90;;;;;;5030983;28;20409;-83
2022/09/16 01:42:38;;;;;;;2.15;0.20;;;12.10;99.90;;;;;;5042440;28;20029;-81
2022/09/16 01:45:36;;;;;;;2.75;0.30;;;12.10;99.90;;;;;;5044183;28;20087;-84
2022/09/16 01:48:16;;;;;;;5.05;0.45;;;12.10;99.90;;;;;;5044384;28;20470;-82
2022/09/16 01:50:54;;;;;;;2.20;0.20;;;12.10;99.90;;;;;;5043648;28;20501;-82
2022/09/16 01:53:23;;;;;;;2.38;0.20;;;12.10;99.90;;;;;;5046009;28;20049;-83
2022/09/16 01:55:58;;;;;;;5.35;0.30;;;12.10;99.90;;;;;;5039408;28;20032;-84
2022/09/16 01:58:34;;;;;;;2.28;0.20;;;12.10;99.90;;;;;;5045353;28;20021;-82
2022/09/16 02:01:07;;;;;;;3.28;0.25;;;12.10;99.90;;;;;;5040700;28;20448;-80
2022/09/16 02:03:37;;;;;;;3.35;0.20;;;12.10;99.90;;;;;;5046275;28;20370;-80
2022/09/16 02:06:08;;;;;;;1.45;0.20;;;12.10;99.90;;;;;;5045909;28;20150;-79
2022/09/16 02:08:42;;;;;;;2.53;0.20;;;12.10;99.90;;;;;;5047505;28;20021;-83
2022/09/16 02:11:10;;;;;;;3.55;0.30;;;12.10;99.90;;;;;;5045431;28;20041;-78
2022/09/16 02:13:44;;;;;;;1.85;0.20;;;12.10;99.90;;;;;;5061000;28;20041;-83
2022/09/16 02:16:38;;;;;;;4.05;0.30;;;12.10;99.90;;;;;;5043822;28;20044;-81
2022/09/16 02:19:15;;;;;;;2.28;0.20;;;12.10;99.90;;;;;;5038780;28;20033;-80
2022/09/16 02:21:42;;;;;;;2.17;0.30;;;12.10;99.90;;;;;;5045301;28;20412;-80
2022/09/16 02:24:12;;;;;;;4.30;0.30;;;12.10;99.90;;;;;;5046265;28;20029;-79
2022/09/16 02:26:51;;;;;;;2.25;0.40;;;12.10;99.90;;;;;;5044406;28;20029;-80
2022/09/16 02:29:24;;;;;;;3.65;0.30;;;12.10;99.90;;;;;;5045007;28;20043;-83
2022/09/16 02:31:54;;;;;;;3.35;0.30;;;12.00;99.90;;;;;;5061850;28;20041;-82
2022/09/16 02:34:33;;;;;;;2.50;0.38;;;12.00;99.90;;;;;;5061138;28;20132;-82
2022/09/16 02:37:11;;;;;;;3.00;0.30;;;12.00;99.90;;;;;;5044268;28;20532;-81
2022/09/16 02:39:40;;;;;;;4.10;0.20;;;11.90;99.90;;;;;;5045848;28;20033;-80
2022/09/16 02:42:06;;;;;;;1.63;0.30;;;11.90;99.90;;;;;;5045100;28;20492;-82
2022/09/16 02:44:33;;;;;;;2.53;0.30;;;12.00;99.90;;;;;;5038200;28;20045;-79
2022/09/16 02:47:26;;;;;;;3.35;0.30;;;12.00;99.90;;;;;;5046500;28;20036;-83
2022/09/16 02:50:16;;;;;;;4.65;0.30;;;12.00;99.90;;;;;;5046071;28;20478;-79
2022/09/16 02:53:11;;;;;;;3.00;0.30;;;12.00;99.90;;;;;;5043112;28;20481;-80
2022/09/16 02:56:01;;;;;;;2.38;0.30;;;12.00;99.90;;;;;;5003411;28;20457;-80
2022/09/16 02:58:28;;;;;;;5.22;0.40;;;12.00;99.90;;;;;;4987228;28;20333;-85
2022/09/16 03:00:55;;;;;;;6.07;0.20;;;12.00;99.90;;;;;;4985891;28;20031;-78
2022/09/16 03:03:21;;;;;;;3.20;0.30;;;12.00;99.90;;;;;;4987125;28;20533;-83
2022/09/16 03:06:07;;;;;;;2.13;0.30;;;12.00;99.90;;;;;;4971815;28;20045;-83
2022/09/16 03:08:34;;;;;;;2.83;0.30;;;12.10;99.90;;;;;;4970678;28;20396;-81
2022/09/16 03:11:26;;;;;;;4.13;0.20;;;12.10;99.90;;;;;;4971427;28;20056;-81
2022/09/16 03:14:10;;;;;;;5.40;0.30;;;12.00;99.90;;;;;;4969456;28;20038;-83
2022/09/16 03:16:39;;;;;;;2.47;0.30;;;12.00;99.90;;;;;;4987237;28;20116;-85
2022/09/16 03:19:23;;;;;;;3.53;0.30;;;12.00;99.90;;;;;;4954872;28;20035;-83
2022/09/16 03:22:05;;;;;;;5.82;0.30;;;12.10;99.90;;;;;;4988842;28;20068;-82
2022/09/16 03:25:05;;;;;;;4.00;0.40;;;12.00;99.90;;;;;;4987495;28;20041;-81
2022/09/16 03:27:41;;;;;;;3.67;0.30;;;12.00;99.90;;;;;;4968907;28;20034;-81
2022/09/16 03:30:09;;;;;;;5.07;0.35;;;12.00;99.90;;;;;;4972018;28;20038;-86
2022/09/16 03:32:40;;;;;;;3.58;0.47;;;11.90;99.90;;;;;;5019267;28;20041;-82
2022/09/16 03:35:21;;;;;;;3.80;0.30;;;12.00;99.90;;;;;;5042116;28;20089;-80
2022/09/16 03:37:48;;;;;;;3.38;0.32;;;12.00;99.90;;;;;;5045959;28;20035;-80
2022/09/16 03:40:18;;;;;;;2.95;0.30;;;11.90;99.90;;;;;;5043645;28;20025;-84
2022/09/16 03:42:44;;;;;;;4.20;0.60;;;12.00;99.90;;;;;;5043377;28;20087;-83
2022/09/16 03:45:19;;;;;;;2.35;0.30;;;12.00;99.90;;;;;;5043454;28;20033;-79
2022/09/16 03:47:47;;;;;;;3.28;0.40;;;11.90;99.90;;;;;;5058598;28;20033;-85
2022/09/16 03:50:13;;;;;;;2.72;0.20;;;11.90;99.90;;;;;;5043146;28;20061;-82
2022/09/16 03:52:39;;;;;;;4.22;0.60;;;12.00;99.90;;;;;;5044175;28;20094;-81
2022/09/16 03:55:06;;;;;;;3.97;0.40;;;11.90;99.90;;;;;;5042464;28;20517;-83
2022/09/16 03:57:32;;;;;;;3.45;0.40;;;11.90;99.90;;;;;;5076450;28;20095;-84
2022/09/16 03:59:58;;;;;;;4.40;0.40;;;11.80;99.90;;;;;;5060659;28;20428;-85
2022/09/16 04:02:23;;;;;;;4.00;0.40;;;11.80;99.90;;;;;;5045886;28;20029;-79
2022/09/16 04:04:49;;;;;;;4.97;0.30;;;11.80;99.90;;;;;;5045368;28;20033;-82
2022/09/16 04:07:15;;;;;;;5.82;0.30;;;11.80;99.90;;;;;;5041178;28;20040;-82
2022/09/16 04:09:41;;;;;;;1.40;0.30;;;11.80;99.90;;;;;;5043426;28;20115;-82
2022/09/16 04:12:07;;;;;;;2.55;0.30;;;11.90;99.90;;;;;;5042633;28;20035;-84
2022/09/16 04:14:34;;;;;;;5.60;0.38;;;11.80;99.90;;;;;;5044163;28;20025;-85
2022/09/16 04:17:01;;;;;;;4.45;0.47;;;11.90;99.90;;;;;;5043844;28;20136;-80
2022/09/16 04:19:27;;;;;;;2.85;0.30;;;11.90;99.90;;;;;;5040570;28;20421;-80
2022/09/16 04:21:52;;;;;;;2.95;0.30;;;11.90;99.90;;;;;;5041540;28;20036;-80
2022/09/16 04:24:18;;;;;;;2.10;0.15;;;11.90;99.90;;;;;;5042496;28;20036;-81
2022/09/16 04:26:44;;;;;;;5.72;0.20;;;11.90;99.90;;;;;;5058802;28;20461;-80
2022/09/16 04:29:10;;;;;;;1.55;0.35;;;11.90;99.90;;;;;;5036339;28;20036;-81
2022/09/16 04:31:36;;;;;;;3.60;0.65;;;12.00;99.90;;;;;;5041272;28;20033;-80
2022/09/16 04:34:03;;;;;;;1.85;0.30;;;12.00;99.90;;;;;;5043397;28;20102;-80
2022/09/16 04:36:29;;;;;;;1.48;0.30;;;11.90;99.90;;;;;;5040979;28;20032;-80
2022/09/16 04:38:54;;;;;;;3.13;0.30;;;11.90;99.90;;;;;;5040147;28;20033;-79
2022/09/16 04:41:22;;;;;;;3.53;0.50;;;11.90;99.90;;;;;;5040694;28;20047;-79
2022/09/16 04:43:55;;;;;;;4.15;0.50;;;11.90;99.90;;;;;;5041632;28;20382;-80
2022/09/16 04:46:22;;;;;;;1.90;0.30;;;11.90;99.90;;;;;;5043365;28;20108;-80
2022/09/16 04:48:49;;;;;;;5.28;0.38;;;11.90;99.90;;;;;;5041764;28;20491;-80
2022/09/16 04:51:15;;;;;;;1.67;0.30;;;11.90;99.90;;;;;;5028604;28;20517;-80
2022/09/16 04:53:44;;;;;;;5.07;0.30;;;11.90;99.90;;;;;;5055401;28;20386;-80
2022/09/16 04:56:18;;;;;;;5.63;0.52;;;11.80;99.90;;;;;;5041765;28;20122;-81
2022/09/16 04:58:53;;;;;;;4.32;0.30;;;11.90;99.90;;;;;;5042476;28;20021;-81
2022/09/16 05:01:26;;;;;;;4.95;0.50;;;11.80;99.90;;;;;;5058877;28;20036;-81
2022/09/16 05:03:54;;;;;;;2.38;0.40;;;11.80;99.90;;;;;;5042432;28;20112;-79
2022/09/16 05:06:22;;;;;;;1.88;0.30;;;11.80;99.90;;;;;;5042730;28;20040;-79
2022/09/16 05:08:50;;;;;;;4.10;0.40;;;11.80;99.90;;;;;;5043987;28;20057;-81
2022/09/16 05:11:18;;;;;;;3.13;0.38;;;11.80;99.90;;;;;;5022608;28;20041;-80
2022/09/16 05:13:44;;;;;;;4.70;0.30;;;11.80;99.90;;;;;;5041856;28;20025;-81
2022/09/16 05:16:15;;;;;;;2.35;0.30;;;11.80;99.90;;;;;;5058739;28;20035;-79
2022/09/16 05:18:43;;;;;;;2.33;0.50;;;11.80;99.90;;;;;;5045027;28;20354;-80
2022/09/16 05:21:14;;;;;;;2.97;0.50;;;11.80;99.90;;;;;;5038621;28;20575;-80
2022/09/16 05:23:40;;;;;;;2.75;0.30;;;11.80;99.90;;;;;;5053359;28;20033;-80
2022/09/16 05:26:09;;;;;;;2.55;0.30;;;11.80;99.90;;;;;;5046187;28;20539;-80
2022/09/16 05:28:35;;;;;;;3.45;0.30;;;11.80;99.90;;;;;;5044538;28;20025;-81
2022/09/16 05:31:18;;;;;;;4.35;0.40;;;11.80;99.90;;;;;;5045220;28;20457;-79
2022/09/16 05:33:46;;;;;;;1.83;0.30;;;11.80;99.90;;;;;;5046630;28;20362;-81
2022/09/16 05:36:15;;;;;;;2.45;0.40;;;11.80;99.90;;;;;;5045215;28;20012;-78
2022/09/16 05:38:41;;;;;;;3.03;0.38;;;11.80;99.90;;;;;;5044453;28;20082;-80
2022/09/16 05:41:07;;;;;;;1.17;0.20;;;11.70;99.90;;;;;;5029586;28;20047;-80
2022/09/16 05:43:33;;;;;;;1.98;0.20;;;11.70;99.90;;;;;;5044139;28;20029;-80
2022/09/16 05:46:00;;;;;;;1.50;0.20;;;11.70;99.90;;;;;;5044085;28;20098;-80
2022/09/16 05:48:26;;;;;;;1.65;0.22;;;11.70;99.90;;;;;;5045339;28;20477;-80
2022/09/16 05:50:56;;;;;;;1.48;0.20;;;11.70;99.90;;;;;;5029612;28;20045;-80
2022/09/16 05:53:23;;;;;;;3.60;0.20;;;11.70;99.90;;;;;;5045410;28;20072;-80
2022/09/16 05:56:00;;;;;;;1.85;0.10;;;11.70;99.90;;;;;;5046579;28;20025;-79
2022/09/16 05:58:27;;;;;;;1.83;0.20;;;11.60;99.90;;;;;;5044611;28;20032;-79
2022/09/16 06:01:05;;;;;;;2.90;0.30;;;11.60;99.90;;;;;;5044767;28;20116;-80
2022/09/16 06:03:32;;;;;;;3.17;0.30;;;11.60;99.90;;;;;;5042980;28;20029;-78
2022/09/16 06:06:12;;;;;;;4.93;0.30;;;11.60;99.90;;;;;;5044105;28;20036;-80
2022/09/16 06:08:39;;;;;;;3.03;0.45;;;11.50;99.90;;;;;;5044509;28;20044;-81
2022/09/16 06:11:07;;;;;;;3.67;0.20;;;11.50;99.90;;;;;;5043141;28;20105;-81
2022/09/16 06:13:34;;;;;;;3.00;0.30;;;11.60;99.90;;;;;;5044529;28;20033;-79
2022/09/16 06:16:00;;;;;;;3.58;0.30;;;11.60;99.90;;;;;;5061860;28;20033;-80
2022/09/16 06:18:28;;;;;;;3.17;0.30;;;11.70;99.90;;;;;;5043109;28;20060;-79
2022/09/16 06:20:54;;;;;;;1.80;0.25;;;11.70;99.90;;;;;;5045459;28;20025;-81
2022/09/16 06:23:21;;;;;;;3.55;0.30;;;11.70;99.90;;;;;;5046139;28;20061;-80
2022/09/16 06:25:47;;;;;;;3.47;0.30;;;11.80;99.90;;;;;;5060612;28;20036;-79
2022/09/16 06:28:14;;;;;;;1.23;0.20;;;11.90;99.90;;;;;;5041237;28;20507;-79
2022/09/16 06:30:40;;;;;;;2.00;0.30;;;11.90;99.90;;;;;;5061848;28;20037;-80
2022/09/16 06:33:06;;;;;;;1.38;0.20;;;12.00;99.90;;;;;;5043482;28;20024;-81
2022/09/16 06:35:34;;;;;;;2.65;0.20;;;12.10;99.90;;;;;;5045840;28;20029;-80
2022/09/16 06:38:00;;;;;;;2.10;0.20;;;12.10;99.90;;;;;;5051503;28;20140;-79
2022/09/16 06:40:26;;;;;;;2.25;0.20;;;12.20;99.90;;;;;;5046181;28;20422;-79
2022/09/16 06:42:53;;;;;;;1.75;0.20;;;12.30;99.90;;;;;;5038042;28;20135;-80
2022/09/16 06:45:19;;;;;;;3.08;0.20;;;12.30;99.90;;;;;;5043705;28;20264;-81
2022/09/16 06:47:45;;;;;;;2.10;0.20;;;12.30;99.90;;;;;;5059193;28;20029;-80
2022/09/16 06:50:11;;;;;;;2.25;0.20;;;12.40;99.90;;;;;;5058595;28;20040;-81
2022/09/16 06:52:36;;;;;;;1.15;0.20;;;12.50;99.90;;;;;;5041706;28;20509;-79
2022/09/16 06:55:02;;;;;;;2.88;0.17;;;12.50;99.90;;;;;;5036261;28;20056;-79
2022/09/16 06:57:28;;;;;;;3.58;0.45;;;12.60;99.90;;;;;;5058739;28;20193;-80
2022/09/16 06:59:54;;;;;;;2.05;0.20;;;12.60;99.90;;;;;;5043713;28;20032;-79
2022/09/16 07:02:20;;;;;;;2.53;0.20;;;12.70;99.90;;;;;;5037351;28;20029;-79
2022/09/16 07:04:45;;;;;;;1.17;0.20;;;12.80;99.90;;;;;;5044677;28;20056;-80
2022/09/16 07:07:12;;;;;;;2.33;0.25;;;12.70;99.90;;;;;;5044484;28;20049;-82
2022/09/16 07:09:38;;;;;;;2.30;0.20;;;12.70;99.90;;;;;;5043592;28;20033;-80
2022/09/16 07:12:04;;;;;;;1.75;0.20;;;12.80;99.90;;;;;;5042013;28;20033;-80
2022/09/16 07:14:33;;;;;;;2.83;0.30;;;12.90;99.90;;;;;;5044308;28;20508;-80
2022/09/16 07:16:59;;;;;;;2.05;0.30;;;13.00;99.90;;;;;;5043181;28;20028;-79
2022/09/16 07:19:26;;;;;;;2.97;0.30;;;13.00;99.90;;;;;;5057212;28;20036;-80
2022/09/16 07:21:52;;;;;;;3.00;0.20;;;13.20;99.90;;;;;;5036642;28;20083;-81
2022/09/16 07:24:18;;;;;;;2.97;0.20;;;13.10;99.90;;;;;;5044204;28;20049;-81
2022/09/16 07:26:44;;;;;;;1.73;0.30;;;13.10;99.90;;;;;;5042836;28;20052;-79
2022/09/16 07:29:13;;;;;;;3.90;0.20;;;13.20;99.90;;;;;;5044494;28;20477;-80
2022/09/16 07:31:38;;;;;;;2.13;0.20;;;13.10;99.90;;;;;;5058708;28;20037;-82
2022/09/16 07:34:06;;;;;;;5.30;0.30;;;13.20;99.90;;;;;;5043309;28;20189;-79
2022/09/16 07:36:38;;;;;;;5.82;0.28;;;13.40;99.90;;;;;;5042477;28;20083;-79
2022/09/16 07:39:05;;;;;;;2.10;0.13;;;13.40;99.90;;;;;;5042433;28;20021;-81
2022/09/16 07:41:37;;;;;;;4.40;0.20;;;13.70;99.90;;;;;;5045042;28;20025;-80
2022/09/16 07:44:04;;;;;;;3.92;0.20;;;13.70;99.90;;;;;;5060050;28;20447;-80
2022/09/16 07:46:32;;;;;;;4.40;0.32;;;13.70;99.90;;;;;;5059229;28;20092;-78
2022/09/16 07:49:00;;;;;;;3.28;0.30;;;13.70;99.90;;;;;;5059585;28;20448;-80
2022/09/16 07:51:27;;;;;;;4.50;0.35;;;14.00;99.90;;;;;;5041013;28;20036;-79
2022/09/16 07:53:58;;;;;;;4.03;0.20;;;14.20;99.90;;;;;;5043625;28;20022;-79
2022/09/16 07:56:25;;;;;;;3.38;0.20;;;13.90;99.90;;;;;;5041893;28;20033;-81
2022/09/16 07:58:53;;;;;;;3.22;0.20;;;13.70;99.90;;;;;;5042825;28;20029;-82
2022/09/16 08:01:19;;;;;;;4.78;0.20;;;13.60;99.90;;;;;;5041185;28;20029;-82
2022/09/16 08:03:45;;;;;;;2.60;0.20;;;13.40;99.90;;;;;;5037375;28;20563;-81
2022/09/16 08:06:16;;;;;;;5.10;0.20;;;13.40;99.90;;;;;;5041925;28;21188;-79
2022/09/16 08:08:43;;;;;;;1.60;0.17;;;13.50;99.90;;;;;;5040964;28;20028;-80
2022/09/16 08:11:08;;;;;;;4.60;0.30;;;13.70;99.90;;;;;;5023223;28;20049;-80
2022/09/16 08:13:36;;;;;;;2.70;0.10;;;13.60;99.90;;;;;;5043027;28;20032;-79
2022/09/16 08:16:09;;;;;;;2.45;0.10;;;13.80;99.90;;;;;;5041892;28;20064;-80
2022/09/16 08:18:35;;;;;;;1.27;0.10;;;13.90;99.90;;;;;;5042536;28;20031;-79
2022/09/16 08:21:06;;;;;;;5.43;0.40;;;13.90;99.90;;;;;;5032600;28;20051;-80
2022/09/16 08:23:33;;;;;;;3.58;0.20;;;13.80;99.90;;;;;;5044182;28;20025;-79
2022/09/16 08:26:00;;;;;;;1.83;0.20;;;13.90;99.90;;;;;;5043905;28;20371;-79
2022/09/16 08:28:26;;;;;;;2.78;0.20;;;14.00;99.90;;;;;;5042484;28;20033;-80
2022/09/16 08:30:53;;;;;;;1.88;0.10;;;14.20;99.90;;;;;;5040561;28;20045;-78
2022/09/16 08:33:21;;;;;;;2.70;0.20;;;14.20;99.90;;;;;;5041218;28;20021;-79
2022/09/16 08:35:57;;;;;;;1.42;0.10;;;14.00;99.90;;;;;;5042543;28;20039;-79
2022/09/16 08:38:23;;;;;;;1.52;0.10;;;14.40;99.90;;;;;;5046540;28;20130;-82
2022/09/16 08:40:49;;;;;;;3.60;0.10;;;14.40;99.90;;;;;;5036822;28;20112;-79
2022/09/16 08:43:35;;;;;;;1.23;0.10;;;14.30;99.90;;;;;;5041515;28;20648;-79
2022/09/16 08:46:30;;;;;;;2.63;0.13;;;14.50;99.90;;;;;;5041593;28;20034;-79
2022/09/16 08:49:10;;;;;;;2.25;0.15;;;14.70;99.90;;;;;;5041897;28;20060;-79
2022/09/16 08:51:36;;;;;;;1.73;0.10;;;14.90;99.90;;;;;;5041802;28;20032;-81
2022/09/16 08:54:21;;;;;;;0.90;0.10;;;15.00;99.90;;;;;;5043203;28;20104;-80
2022/09/16 08:56:48;;;;;;;2.38;0.10;;;15.10;99.90;;;;;;5041796;28;20040;-81
2022/09/16 08:59:20;;;;;;;2.67;0.20;;;15.20;99.90;;;;;;5052174;28;20033;-81
2022/09/16 09:02:23;;;;;;;1.75;0.10;;;15.30;99.90;;;;;;5024708;28;20033;-78
2022/09/16 09:04:49;;;;;;;2.13;0.20;;;15.20;99.90;;;;;;5042937;28;20040;-80
2022/09/16 09:07:39;;;;;;;2.35;0.10;;;15.20;99.90;;;;;;5036170;28;20036;-81
2022/09/16 09:10:26;;;;;;;4.85;0.20;;;15.20;99.90;;;;;;5041771;28;20508;-80
2022/09/16 09:13:06;;;;;;;2.47;0.30;;;15.50;99.90;;;;;;5039229;28;20032;-81
2022/09/16 09:16:04;;;;;;;3.20;0.20;;;15.50;99.90;;;;;;5048969;28;20033;-80
2022/09/16 09:18:39;;;;;;;1.73;0.13;;;15.40;99.90;;;;;;5028480;28;20108;-80
2022/09/16 09:21:40;;;;;;;3.25;0.20;;;15.30;99.90;;;;;;5042291;28;20029;-82
2022/09/16 09:24:15;;;;;;;2.13;0.10;;;15.30;99.90;;;;;;5041033;28;20040;-79
2022/09/16 09:26:57;;;;;;;1.00;0.10;;;15.40;99.90;;;;;;5057732;28;20044;-80
2022/09/16 09:29:32;;;;;;;2.03;0.20;;;15.70;99.90;;;;;;5040454;28;20108;-80
2022/09/16 09:32:14;;;;;;;5.95;0.10;;;16.30;99.90;;;;;;5042424;28;20059;-80
2022/09/16 09:34:58;;;;;;;1.77;0.20;;;15.50;99.90;;;;;;5074791;28;20061;-80
2022/09/16 09:37:29;;;;;;;4.65;0.20;;;15.30;99.90;;;;;;5021954;28;20434;-80
2022/09/16 09:40:09;;;;;;;1.92;0.10;;;15.00;99.90;;;;;;5044598;28;20060;-79
2022/09/16 09:42:41;;;;;;;1.27;0.10;;;15.60;99.90;;;;;;5055927;28;20065;-80
2022/09/16 09:45:23;;;;;;;2.45;0.10;;;15.80;99.90;;;;;;5030628;28;20072;-80
2022/09/16 09:47:58;;;;;;;0.82;0.10;;;15.80;99.90;;;;;;5041415;28;20128;-79
2022/09/16 09:50:37;;;;;;;0.77;0.08;;;15.90;99.90;;;;;;5039307;28;20109;-79
2022/09/16 09:53:28;;;;;;;1.65;0.00;;;16.00;99.90;;;;;;5038770;28;20103;-80
2022/09/16 09:56:16;;;;;;;1.02;0.30;;;16.00;99.90;;;;;;5039372;28;20504;-77
2022/09/16 09:58:54;;;;;;;3.83;0.20;;;16.30;99.90;;;;;;5038739;28;20021;-80
2022/09/16 10:01:20;;;;;;;1.95;0.10;;;16.10;99.90;;;;;;5039482;28;20037;-80
2022/09/16 10:03:49;;;;;;;1.52;0.10;;;16.40;99.90;;;;;;5045477;28;20048;-79
2022/09/16 10:06:17;;;;;;;1.63;0.10;;;16.10;99.90;;;;;;5060823;28;20323;-79
2022/09/16 10:08:47;;;;;;;2.17;0.10;;;16.20;99.90;;;;;;5041956;28;20056;-79
2022/09/16 10:11:22;;;;;;;1.88;0.10;;;16.40;99.90;;;;;;5024834;28;21164;-80
2022/09/16 10:13:50;;;;;;;1.00;0.10;;;16.20;99.90;;;;;;5006393;28;20486;-80
2022/09/16 10:16:20;;;;;;;3.38;0.10;;;16.40;99.90;;;;;;5019148;28;20040;-80
2022/09/16 10:19:04;;;;;;;1.70;0.10;;;16.50;99.90;;;;;;5007050;28;20044;-79
2022/09/16 10:21:49;;;;;;;2.05;0.10;;;16.40;99.90;;;;;;5009762;28;20076;-80
2022/09/16 10:24:29;;;;;;;0.73;0.05;;;16.50;99.90;;;;;;5006501;28;20449;-80
2022/09/16 10:26:57;;;;;;;1.52;0.10;;;16.00;99.90;;;;;;5023014;28;20040;-79
2022/09/16 10:29:23;;;;;;;1.10;0.10;;;16.00;99.90;;;;;;5024939;28;20032;-80
2022/09/16 10:31:48;;;;;;;4.28;0.10;;;16.20;99.90;;;;;;5025252;28;20033;-82
2022/09/16 10:34:23;;;;;;;1.52;0.13;;;16.50;99.90;;;;;;5006461;28;20339;-80
2022/09/16 10:37:09;;;;;;;1.67;0.13;;;16.00;99.90;;;;;;5008963;28;20029;-78
2022/09/16 10:39:36;;;;;;;0.30;0.00;;;16.30;99.90;;;;;;5010315;28;20033;-79
2022/09/16 10:42:03;;;;;;;0.93;0.00;;;16.60;99.90;;;;;;5008097;28;20034;-80
2022/09/16 10:44:32;;;;;;;1.20;0.10;;;16.50;99.90;;;;;;5025702;28;20044;-80
2022/09/16 10:47:01;;;;;;;2.95;0.17;;;16.50;99.90;;;;;;5005873;28;20147;-79
2022/09/16 10:49:43;;;;;;;1.33;0.10;;;16.20;99.90;;;;;;5022329;28;20036;-79
2022/09/16 10:52:16;;;;;;;1.52;0.10;;;16.50;99.90;;;;;;5007886;28;20029;-80
2022/09/16 10:54:43;;;;;;;1.73;0.10;;;16.80;99.90;;;;;;5022135;28;20116;-80
2022/09/16 10:57:28;;;;;;;1.45;0.10;;;17.30;99.90;;;;;;5000420;28;20056;-79
2022/09/16 11:00:20;;;;;;;0.85;0.03;;;17.20;99.90;;;;;;4989497;28;20033;-80
2022/09/16 11:03:07;;;;;;;2.50;0.20;;;17.00;99.90;;;;;;5004878;28;20033;-80
2022/09/16 11:05:44;;;;;;;2.95;0.10;;;16.50;99.90;;;;;;4990538;28;20045;-80
2022/09/16 11:08:18;;;;;;;3.58;0.20;;;16.10;99.90;;;;;;5006593;28;20060;-80
2022/09/16 11:10:56;;;;;;;6.22;0.20;;;15.70;99.90;;;;;;5005592;28;20081;-80
2022/09/16 11:13:41;;;;;;;3.65;0.20;;;15.60;99.90;;;;;;5023850;28;20378;-81
2022/09/16 11:16:19;;;;;;;2.40;0.13;;;15.40;99.90;;;;;;5025780;28;20039;-79
2022/09/16 11:19:03;;;;;;;2.97;0.10;;;16.30;99.90;;;;;;5024132;28;20029;-80
2022/09/16 11:21:47;;;;;;;1.15;0.10;;;17.00;99.90;;;;;;5004272;28;20025;-80
2022/09/16 11:24:16;;;;;;;3.08;0.20;;;17.00;99.90;;;;;;5022132;28;20044;-82
2022/09/16 11:26:53;;;;;;;3.75;0.20;;;17.10;99.90;;;;;;5005376;28;20390;-80
2022/09/16 11:29:37;;;;;;;2.03;0.10;;;17.20;99.90;;;;;;5009610;28;20087;-80
2022/09/16 11:32:41;;;;;;;1.98;0.20;;;17.00;99.90;;;;;;5024861;28;20152;-80
2022/09/16 11:35:26;;;;;;;2.20;0.20;;;16.30;99.90;;;;;;5000221;28;20081;-80
2022/09/16 11:38:01;;;;;;;2.50;0.20;;;16.10;99.90;;;;;;5025837;28;20099;-81
2022/09/16 11:40:35;;;;;;;1.50;0.10;;;16.30;99.90;;;;;;5005936;28;20029;-81
2022/09/16 11:43:18;;;;;;;3.97;0.15;;;16.70;99.90;;;;;;5005138;28;20021;-80
2022/09/16 11:46:10;;;;;;;1.23;0.10;;;17.30;99.90;;;;;;5021354;28;20059;-81
2022/09/16 11:49:01;;;;;;;0.80;0.10;;;17.20;99.90;;;;;;5006451;28;20442;-80
2022/09/16 11:51:44;;;;;;;0.95;0.10;;;16.90;99.90;;;;;;5005339;28;20048;-80
2022/09/16 11:55:01;;;;;;;4.03;0.47;;;16.90;99.90;;;;;;5023216;28;20059;-80
2022/09/16 11:57:37;;;;;;;0.98;0.25;;;16.50;99.90;;;;;;4959408;28;20057;-78
2022/09/16 12:00:17;;;;;;;6.88;0.20;;;16.30;99.90;;;;;;4966010;28;20043;-79
2022/09/16 12:02:56;;;;;;;1.80;0.10;;;16.00;99.90;;;;;;4978659;28;20778;-79
2022/09/16 12:05:26;;;;;;;1.02;0.10;;;16.00;99.90;;;;;;4950287;28;20043;-80
2022/09/16 12:08:10;;;;;;;0.80;0.10;;;16.20;99.90;;;;;;4978340;28;20039;-78
2022/09/16 12:10:50;;;;;;;1.33;0.10;;;16.60;99.90;;;;;;4979023;28;20113;-78
2022/09/16 12:13:42;;;;;;;0.82;0.10;;;16.60;99.90;;;;;;4946581;28;20054;-79
2022/09/16 12:16:14;;;;;;;1.52;0.10;;;16.40;99.90;;;;;;4947521;28;20042;-78
2022/09/16 12:18:47;;;;;;;1.65;0.10;;;16.10;99.90;;;;;;4946728;28;20113;-78
2022/09/16 12:21:41;;;;;;;1.50;0.10;;;15.90;99.90;;;;;;4976233;28;20043;-77
2022/09/16 12:24:21;;;;;;;1.90;0.10;;;16.20;99.90;;;;;;4929816;28;20051;-78
2022/09/16 12:26:55;;;;;;;2.17;0.20;;;16.70;99.90;;;;;;4960216;28;20035;-79
2022/09/16 12:29:30;;;;;;;3.30;0.20;;;16.70;99.90;;;;;;4979124;28;20030;-80
2022/09/16 12:32:11;;;;;;;1.42;0.10;;;17.10;99.90;;;;;;4935651;28;20031;-79
2022/09/16 12:35:01;;;;;;;3.10;0.20;;;17.30;99.90;;;;;;5008310;28;20473;-77
2022/09/16 12:37:32;;;;;;;2.15;0.10;;;17.50;99.90;;;;;;5006560;28;20389;-78
2022/09/16 12:39:59;;;;;;;3.38;0.10;;;17.70;99.90;;;;;;5007469;28;20039;-79
2022/09/16 12:42:46;;;;;;;2.47;0.20;;;17.50;99.90;;;;;;5020767;28;20030;-79
2022/09/16 12:45:38;;;;;;;4.18;0.28;;;17.20;99.90;;;;;;5021958;28;20038;-79
2022/09/16 12:48:55;;;;;;;2.58;0.20;;;17.40;99.90;;;;;;4988492;28;20116;-80
2022/09/16 12:51:26;;;;;;;1.20;0.10;;;17.20;99.90;;;;;;4963752;28;20037;-77
2022/09/16 12:53:59;;;;;;;2.92;0.20;;;17.40;99.90;;;;;;4966236;28;20051;-77
2022/09/16 12:56:46;;;;;;;6.63;0.20;;;17.40;99.90;;;;;;4965181;28;20037;-80
2022/09/16 12:59:19;;;;;;;2.30;0.10;;;17.80;99.90;;;;;;4965388;28;20543;-79
2022/09/16 13:01:53;;;;;;;3.28;0.20;;;17.10;99.90;;;;;;4965024;28;20142;-78
2022/09/16 13:04:23;;;;;;;4.40;0.20;;;16.70;99.90;;;;;;4965707;28;20510;-78
2022/09/16 13:06:51;;;;;;;6.60;0.28;;;16.70;99.90;;;;;;4965291;28;20091;-78
2022/09/16 13:09:25;;;;;;;3.90;0.20;;;16.60;99.90;;;;;;4965256;28;20083;-80
2022/09/16 13:11:59;;;;;;;3.35;0.15;;;16.60;99.90;;;;;;4966130;28;20419;-79
2022/09/16 13:14:30;;;;;;;3.08;0.17;;;16.80;99.90;;;;;;4965463;28;20101;-78
2022/09/16 13:16:58;;;;;;;2.15;0.20;;;17.00;99.90;;;;;;4948479;28;20034;-78
2022/09/16 13:19:35;;;;;;;3.17;0.40;;;16.80;99.90;;;;;;4964852;28;20132;-78
2022/09/16 13:22:18;;;;;;;6.70;0.20;;;16.80;99.90;;;;;;4965718;28;20463;-78
2022/09/16 13:24:49;;;;;;;2.72;0.30;;;17.00;99.90;;;;;;4979214;28;20046;-79